sensor_id;sensor_type;location;lat;lon;timestamp;P1;durP1;ratioP1;P2;durP2;ratioP2
3081;SDS011;1551;51.046;7.010;2024-03-08T00:02:15;18.95;;;14.68;;
3081;SDS011;1551;51.046;7.010;2024-03-08T00:05:05;17.45;;;15.30;;
3081;SDS011;1551;51.046;7.010;2024-03-08T00:07:57;19.02;;;15.90;;
3081;SDS011;1551;51.046;7.010;2024-03-08T00:10:46;19.45;;;15.75;;
3081;SDS011;1551;51.046;7.010;2024-03-08T00:13:34;20.65;;;15.43;;
3081;SDS011;1551;51.046;7.010;2024-03-08T00:16:23;20.70;;;15.60;;
3081;SDS011;1551;51.046;7.010;2024-03-08T00:19:12;18.23;;;14.97;;
3081;SDS011;1551;51.046;7.010;2024-03-08T00:22:01;20.17;;;14.48;;
3081;SDS011;1551;51.046;7.010;2024-03-08T00:24:50;18.35;;;15.55;;
3081;SDS011;1551;51.046;7.010;2024-03-08T00:27:39;19.55;;;14.63;;
3081;SDS011;1551;51.046;7.010;2024-03-08T00:30:29;19.13;;;14.35;;
3081;SDS011;1551;51.046;7.010;2024-03-08T00:33:19;16.98;;;15.10;;
3081;SDS011;1551;51.046;7.010;2024-03-08T00:36:08;16.95;;;14.90;;
3081;SDS011;1551;51.046;7.010;2024-03-08T00:38:57;19.98;;;15.55;;
3081;SDS011;1551;51.046;7.010;2024-03-08T00:41:47;17.90;;;14.70;;
3081;SDS011;1551;51.046;7.010;2024-03-08T00:44:36;19.98;;;16.10;;
3081;SDS011;1551;51.046;7.010;2024-03-08T00:47:24;17.20;;;15.40;;
3081;SDS011;1551;51.046;7.010;2024-03-08T00:50:13;18.60;;;15.07;;
3081;SDS011;1551;51.046;7.010;2024-03-08T00:53:02;17.35;;;15.20;;
3081;SDS011;1551;51.046;7.010;2024-03-08T00:55:53;16.90;;;15.10;;
3081;SDS011;1551;51.046;7.010;2024-03-08T00:58:43;19.35;;;15.48;;
3081;SDS011;1551;51.046;7.010;2024-03-08T01:01:32;20.58;;;15.50;;
3081;SDS011;1551;51.046;7.010;2024-03-08T01:04:22;19.20;;;15.63;;
3081;SDS011;1551;51.046;7.010;2024-03-08T01:07:11;21.55;;;16.60;;
3081;SDS011;1551;51.046;7.010;2024-03-08T01:10:01;20.27;;;14.40;;
3081;SDS011;1551;51.046;7.010;2024-03-08T01:12:53;18.25;;;15.18;;
3081;SDS011;1551;51.046;7.010;2024-03-08T01:15:43;21.38;;;16.17;;
3081;SDS011;1551;51.046;7.010;2024-03-08T01:18:32;20.20;;;16.80;;
3081;SDS011;1551;51.046;7.010;2024-03-08T01:21:21;25.25;;;16.85;;
3081;SDS011;1551;51.046;7.010;2024-03-08T01:24:11;22.00;;;16.77;;
3081;SDS011;1551;51.046;7.010;2024-03-08T01:27:00;22.55;;;16.90;;
3081;SDS011;1551;51.046;7.010;2024-03-08T01:29:49;20.85;;;16.30;;
3081;SDS011;1551;51.046;7.010;2024-03-08T01:32:37;20.60;;;17.00;;
3081;SDS011;1551;51.046;7.010;2024-03-08T01:35:26;18.92;;;15.35;;
3081;SDS011;1551;51.046;7.010;2024-03-08T01:38:16;20.25;;;16.48;;
3081;SDS011;1551;51.046;7.010;2024-03-08T01:41:05;20.42;;;15.55;;
3081;SDS011;1551;51.046;7.010;2024-03-08T01:43:54;20.17;;;15.48;;
3081;SDS011;1551;51.046;7.010;2024-03-08T01:46:44;18.45;;;15.65;;
3081;SDS011;1551;51.046;7.010;2024-03-08T01:49:33;18.75;;;14.90;;
3081;SDS011;1551;51.046;7.010;2024-03-08T01:52:22;19.80;;;16.30;;
3081;SDS011;1551;51.046;7.010;2024-03-08T01:55:12;20.50;;;15.65;;
3081;SDS011;1551;51.046;7.010;2024-03-08T01:58:05;21.88;;;16.08;;
3081;SDS011;1551;51.046;7.010;2024-03-08T02:00:54;18.17;;;14.95;;
3081;SDS011;1551;51.046;7.010;2024-03-08T02:03:44;21.05;;;15.60;;
3081;SDS011;1551;51.046;7.010;2024-03-08T02:06:34;19.87;;;16.00;;
3081;SDS011;1551;51.046;7.010;2024-03-08T02:09:24;19.90;;;16.10;;
3081;SDS011;1551;51.046;7.010;2024-03-08T02:12:16;20.55;;;16.20;;
3081;SDS011;1551;51.046;7.010;2024-03-08T02:15:05;20.10;;;15.93;;
3081;SDS011;1551;51.046;7.010;2024-03-08T02:17:57;18.85;;;15.48;;
3081;SDS011;1551;51.046;7.010;2024-03-08T02:20:49;21.83;;;17.20;;
3081;SDS011;1551;51.046;7.010;2024-03-08T02:23:39;20.00;;;16.40;;
3081;SDS011;1551;51.046;7.010;2024-03-08T02:26:29;21.30;;;15.03;;
3081;SDS011;1551;51.046;7.010;2024-03-08T02:29:18;22.23;;;16.77;;
3081;SDS011;1551;51.046;7.010;2024-03-08T02:32:08;20.77;;;15.82;;
3081;SDS011;1551;51.046;7.010;2024-03-08T02:34:57;22.48;;;17.60;;
3081;SDS011;1551;51.046;7.010;2024-03-08T02:37:48;22.30;;;15.63;;
3081;SDS011;1551;51.046;7.010;2024-03-08T02:40:37;19.27;;;14.38;;
3081;SDS011;1551;51.046;7.010;2024-03-08T02:43:26;20.25;;;16.83;;
3081;SDS011;1551;51.046;7.010;2024-03-08T02:46:16;20.55;;;17.25;;
3081;SDS011;1551;51.046;7.010;2024-03-08T02:49:05;20.50;;;15.10;;
3081;SDS011;1551;51.046;7.010;2024-03-08T02:51:56;23.90;;;16.83;;
3081;SDS011;1551;51.046;7.010;2024-03-08T02:54:45;21.55;;;16.70;;
3081;SDS011;1551;51.046;7.010;2024-03-08T02:57:35;22.15;;;16.88;;
3081;SDS011;1551;51.046;7.010;2024-03-08T03:00:25;21.67;;;17.10;;
3081;SDS011;1551;51.046;7.010;2024-03-08T03:03:15;19.40;;;15.98;;
3081;SDS011;1551;51.046;7.010;2024-03-08T03:06:05;20.48;;;16.75;;
3081;SDS011;1551;51.046;7.010;2024-03-08T03:08:56;18.67;;;15.80;;
3081;SDS011;1551;51.046;7.010;2024-03-08T03:11:46;19.85;;;16.55;;
3081;SDS011;1551;51.046;7.010;2024-03-08T03:14:35;19.65;;;15.18;;
3081;SDS011;1551;51.046;7.010;2024-03-08T03:17:27;20.83;;;16.90;;
3081;SDS011;1551;51.046;7.010;2024-03-08T03:20:16;19.98;;;16.05;;
3081;SDS011;1551;51.046;7.010;2024-03-08T03:23:15;22.45;;;16.00;;
3081;SDS011;1551;51.046;7.010;2024-03-08T03:26:09;19.63;;;16.80;;
3081;SDS011;1551;51.046;7.010;2024-03-08T03:29:01;21.33;;;15.98;;
3081;SDS011;1551;51.046;7.010;2024-03-08T03:31:51;19.65;;;16.95;;
3081;SDS011;1551;51.046;7.010;2024-03-08T03:34:41;17.83;;;15.70;;
3081;SDS011;1551;51.046;7.010;2024-03-08T03:37:32;20.92;;;15.80;;
3081;SDS011;1551;51.046;7.010;2024-03-08T03:40:22;21.48;;;16.35;;
3081;SDS011;1551;51.046;7.010;2024-03-08T03:43:14;20.33;;;16.50;;
3081;SDS011;1551;51.046;7.010;2024-03-08T03:46:05;19.58;;;15.80;;
3081;SDS011;1551;51.046;7.010;2024-03-08T03:48:55;19.10;;;15.90;;
3081;SDS011;1551;51.046;7.010;2024-03-08T03:51:44;21.75;;;16.75;;
3081;SDS011;1551;51.046;7.010;2024-03-08T03:54:33;20.85;;;16.27;;
3081;SDS011;1551;51.046;7.010;2024-03-08T03:57:22;20.73;;;16.35;;
3081;SDS011;1551;51.046;7.010;2024-03-08T04:00:11;19.25;;;15.18;;
3081;SDS011;1551;51.046;7.010;2024-03-08T04:03:04;20.38;;;15.63;;
3081;SDS011;1551;51.046;7.010;2024-03-08T04:05:53;18.33;;;15.75;;
3081;SDS011;1551;51.046;7.010;2024-03-08T04:08:42;20.10;;;15.13;;
3081;SDS011;1551;51.046;7.010;2024-03-08T04:11:31;20.20;;;16.37;;
3081;SDS011;1551;51.046;7.010;2024-03-08T04:14:20;20.38;;;15.32;;
3081;SDS011;1551;51.046;7.010;2024-03-08T04:17:09;22.25;;;16.58;;
3081;SDS011;1551;51.046;7.010;2024-03-08T04:20:00;17.83;;;14.82;;
3081;SDS011;1551;51.046;7.010;2024-03-08T04:22:49;19.92;;;16.40;;
3081;SDS011;1551;51.046;7.010;2024-03-08T04:25:38;23.65;;;17.65;;
3081;SDS011;1551;51.046;7.010;2024-03-08T04:28:27;21.92;;;17.02;;
3081;SDS011;1551;51.046;7.010;2024-03-08T04:31:16;21.33;;;16.77;;
3081;SDS011;1551;51.046;7.010;2024-03-08T04:34:05;22.60;;;16.75;;
3081;SDS011;1551;51.046;7.010;2024-03-08T04:36:54;20.63;;;16.55;;
3081;SDS011;1551;51.046;7.010;2024-03-08T04:39:43;21.00;;;16.67;;
3081;SDS011;1551;51.046;7.010;2024-03-08T04:42:32;22.30;;;15.90;;
3081;SDS011;1551;51.046;7.010;2024-03-08T04:45:22;21.70;;;17.40;;
3081;SDS011;1551;51.046;7.010;2024-03-08T04:48:11;20.27;;;15.95;;
3081;SDS011;1551;51.046;7.010;2024-03-08T04:51:00;21.05;;;16.00;;
3081;SDS011;1551;51.046;7.010;2024-03-08T04:53:50;21.02;;;15.95;;
3081;SDS011;1551;51.046;7.010;2024-03-08T04:56:39;21.70;;;16.90;;
3081;SDS011;1551;51.046;7.010;2024-03-08T04:59:28;20.80;;;17.38;;
3081;SDS011;1551;51.046;7.010;2024-03-08T05:02:16;20.00;;;16.10;;
3081;SDS011;1551;51.046;7.010;2024-03-08T05:05:07;25.00;;;16.90;;
3081;SDS011;1551;51.046;7.010;2024-03-08T05:07:58;19.95;;;16.45;;
3081;SDS011;1551;51.046;7.010;2024-03-08T05:10:47;21.33;;;16.63;;
3081;SDS011;1551;51.046;7.010;2024-03-08T05:13:36;21.70;;;16.03;;
3081;SDS011;1551;51.046;7.010;2024-03-08T05:16:26;20.05;;;16.23;;
3081;SDS011;1551;51.046;7.010;2024-03-08T05:19:15;21.45;;;16.98;;
3081;SDS011;1551;51.046;7.010;2024-03-08T05:22:07;20.02;;;16.40;;
3081;SDS011;1551;51.046;7.010;2024-03-08T05:24:57;23.73;;;17.58;;
3081;SDS011;1551;51.046;7.010;2024-03-08T05:27:45;23.80;;;16.57;;
3081;SDS011;1551;51.046;7.010;2024-03-08T05:30:37;22.60;;;17.23;;
3081;SDS011;1551;51.046;7.010;2024-03-08T05:33:26;21.20;;;16.87;;
3081;SDS011;1551;51.046;7.010;2024-03-08T05:36:16;21.08;;;16.20;;
3081;SDS011;1551;51.046;7.010;2024-03-08T05:39:08;21.42;;;16.38;;
3081;SDS011;1551;51.046;7.010;2024-03-08T05:41:57;22.98;;;18.02;;
3081;SDS011;1551;51.046;7.010;2024-03-08T05:44:46;23.38;;;17.70;;
3081;SDS011;1551;51.046;7.010;2024-03-08T05:47:35;22.50;;;16.63;;
3081;SDS011;1551;51.046;7.010;2024-03-08T05:50:24;24.20;;;18.13;;
3081;SDS011;1551;51.046;7.010;2024-03-08T05:53:13;22.07;;;16.70;;
3081;SDS011;1551;51.046;7.010;2024-03-08T05:56:04;24.60;;;17.60;;
3081;SDS011;1551;51.046;7.010;2024-03-08T05:58:53;24.40;;;18.20;;
3081;SDS011;1551;51.046;7.010;2024-03-08T06:01:42;22.40;;;18.00;;
3081;SDS011;1551;51.046;7.010;2024-03-08T06:04:31;21.65;;;17.33;;
3081;SDS011;1551;51.046;7.010;2024-03-08T06:07:20;21.73;;;16.13;;
3081;SDS011;1551;51.046;7.010;2024-03-08T06:10:09;21.37;;;17.87;;
3081;SDS011;1551;51.046;7.010;2024-03-08T06:12:59;23.00;;;17.45;;
3081;SDS011;1551;51.046;7.010;2024-03-08T06:15:50;23.20;;;17.40;;
3081;SDS011;1551;51.046;7.010;2024-03-08T06:18:39;23.30;;;17.60;;
3081;SDS011;1551;51.046;7.010;2024-03-08T06:21:28;22.95;;;17.38;;
3081;SDS011;1551;51.046;7.010;2024-03-08T06:24:17;23.63;;;16.55;;
3081;SDS011;1551;51.046;7.010;2024-03-08T06:27:06;21.75;;;17.23;;
3081;SDS011;1551;51.046;7.010;2024-03-08T06:29:58;22.95;;;17.52;;
3081;SDS011;1551;51.046;7.010;2024-03-08T06:32:47;22.23;;;17.48;;
3081;SDS011;1551;51.046;7.010;2024-03-08T06:35:36;22.08;;;16.98;;
3081;SDS011;1551;51.046;7.010;2024-03-08T06:38:26;21.98;;;17.40;;
3081;SDS011;1551;51.046;7.010;2024-03-08T06:41:15;22.10;;;17.10;;
3081;SDS011;1551;51.046;7.010;2024-03-08T06:44:05;22.38;;;17.13;;
3081;SDS011;1551;51.046;7.010;2024-03-08T06:46:56;21.83;;;16.17;;
3081;SDS011;1551;51.046;7.010;2024-03-08T06:49:45;21.63;;;17.77;;
3081;SDS011;1551;51.046;7.010;2024-03-08T06:52:34;23.45;;;17.23;;
3081;SDS011;1551;51.046;7.010;2024-03-08T06:55:23;24.13;;;18.48;;
3081;SDS011;1551;51.046;7.010;2024-03-08T06:58:12;20.77;;;16.98;;
3081;SDS011;1551;51.046;7.010;2024-03-08T07:01:01;23.60;;;18.35;;
3081;SDS011;1551;51.046;7.010;2024-03-08T07:03:52;24.25;;;17.38;;
3081;SDS011;1551;51.046;7.010;2024-03-08T07:06:41;22.75;;;17.58;;
3081;SDS011;1551;51.046;7.010;2024-03-08T07:09:30;23.17;;;17.13;;
3081;SDS011;1551;51.046;7.010;2024-03-08T07:12:19;19.60;;;17.17;;
3081;SDS011;1551;51.046;7.010;2024-03-08T07:15:09;23.13;;;17.05;;
3081;SDS011;1551;51.046;7.010;2024-03-08T07:18:05;22.85;;;16.88;;
3081;SDS011;1551;51.046;7.010;2024-03-08T07:20:54;19.77;;;16.50;;
3081;SDS011;1551;51.046;7.010;2024-03-08T07:23:43;22.27;;;17.38;;
3081;SDS011;1551;51.046;7.010;2024-03-08T07:26:45;23.52;;;17.50;;
3081;SDS011;1551;51.046;7.010;2024-03-08T07:29:38;24.02;;;17.67;;
3081;SDS011;1551;51.046;7.010;2024-03-08T07:32:27;19.52;;;15.95;;
3081;SDS011;1551;51.046;7.010;2024-03-08T07:35:18;19.27;;;16.30;;
3081;SDS011;1551;51.046;7.010;2024-03-08T07:38:07;21.30;;;17.57;;
3081;SDS011;1551;51.046;7.010;2024-03-08T07:40:58;19.38;;;16.25;;
3081;SDS011;1551;51.046;7.010;2024-03-08T07:43:48;21.10;;;16.65;;
3081;SDS011;1551;51.046;7.010;2024-03-08T07:46:37;23.95;;;16.80;;
3081;SDS011;1551;51.046;7.010;2024-03-08T07:49:26;23.20;;;17.13;;
3081;SDS011;1551;51.046;7.010;2024-03-08T07:52:15;20.80;;;16.45;;
3081;SDS011;1551;51.046;7.010;2024-03-08T07:55:06;19.17;;;15.35;;
3081;SDS011;1551;51.046;7.010;2024-03-08T07:57:56;21.27;;;16.60;;
3081;SDS011;1551;51.046;7.010;2024-03-08T08:00:45;22.45;;;16.10;;
3081;SDS011;1551;51.046;7.010;2024-03-08T08:03:34;24.23;;;16.90;;
3081;SDS011;1551;51.046;7.010;2024-03-08T08:06:27;20.48;;;16.08;;
3081;SDS011;1551;51.046;7.010;2024-03-08T08:09:16;18.92;;;15.48;;
3081;SDS011;1551;51.046;7.010;2024-03-08T08:12:16;20.70;;;16.00;;
3081;SDS011;1551;51.046;7.010;2024-03-08T08:15:05;23.52;;;16.70;;
3081;SDS011;1551;51.046;7.010;2024-03-08T08:17:55;18.88;;;15.15;;
3081;SDS011;1551;51.046;7.010;2024-03-08T08:20:44;17.65;;;15.18;;
3081;SDS011;1551;51.046;7.010;2024-03-08T08:23:33;19.73;;;15.00;;
3081;SDS011;1551;51.046;7.010;2024-03-08T08:26:22;18.48;;;15.50;;
3081;SDS011;1551;51.046;7.010;2024-03-08T08:29:11;19.63;;;15.40;;
3081;SDS011;1551;51.046;7.010;2024-03-08T08:31:59;18.35;;;15.43;;
3081;SDS011;1551;51.046;7.010;2024-03-08T08:34:49;21.80;;;15.90;;
3081;SDS011;1551;51.046;7.010;2024-03-08T08:37:41;16.77;;;14.77;;
3081;SDS011;1551;51.046;7.010;2024-03-08T08:40:30;16.73;;;14.95;;
3081;SDS011;1551;51.046;7.010;2024-03-08T08:43:20;21.52;;;15.57;;
3081;SDS011;1551;51.046;7.010;2024-03-08T08:46:12;18.75;;;14.68;;
3081;SDS011;1551;51.046;7.010;2024-03-08T08:49:05;18.95;;;14.43;;
3081;SDS011;1551;51.046;7.010;2024-03-08T08:51:55;18.05;;;14.02;;
3081;SDS011;1551;51.046;7.010;2024-03-08T08:54:44;19.48;;;14.40;;
3081;SDS011;1551;51.046;7.010;2024-03-08T08:57:33;18.42;;;15.40;;
3081;SDS011;1551;51.046;7.010;2024-03-08T09:00:22;17.35;;;14.45;;
3081;SDS011;1551;51.046;7.010;2024-03-08T09:03:15;18.73;;;14.60;;
3081;SDS011;1551;51.046;7.010;2024-03-08T09:06:06;17.15;;;14.90;;
3081;SDS011;1551;51.046;7.010;2024-03-08T09:08:58;18.95;;;14.77;;
3081;SDS011;1551;51.046;7.010;2024-03-08T09:11:47;17.40;;;14.48;;
3081;SDS011;1551;51.046;7.010;2024-03-08T09:14:36;17.08;;;14.70;;
3081;SDS011;1551;51.046;7.010;2024-03-08T09:17:25;19.33;;;14.35;;
3081;SDS011;1551;51.046;7.010;2024-03-08T09:20:14;17.38;;;14.32;;
3081;SDS011;1551;51.046;7.010;2024-03-08T09:23:03;18.65;;;14.40;;
3081;SDS011;1551;51.046;7.010;2024-03-08T09:25:52;16.85;;;14.40;;
3081;SDS011;1551;51.046;7.010;2024-03-08T09:28:41;17.67;;;13.82;;
3081;SDS011;1551;51.046;7.010;2024-03-08T09:31:30;15.70;;;13.43;;
3081;SDS011;1551;51.046;7.010;2024-03-08T09:34:19;16.90;;;12.93;;
3081;SDS011;1551;51.046;7.010;2024-03-08T09:37:08;16.45;;;12.93;;
3081;SDS011;1551;51.046;7.010;2024-03-08T09:39:57;16.17;;;13.40;;
3081;SDS011;1551;51.046;7.010;2024-03-08T09:42:48;14.43;;;12.48;;
3081;SDS011;1551;51.046;7.010;2024-03-08T09:45:37;16.40;;;12.35;;
3081;SDS011;1551;51.046;7.010;2024-03-08T09:48:30;14.10;;;11.93;;
3081;SDS011;1551;51.046;7.010;2024-03-08T09:51:24;15.15;;;11.95;;
3081;SDS011;1551;51.046;7.010;2024-03-08T09:54:17;16.20;;;11.85;;
3081;SDS011;1551;51.046;7.010;2024-03-08T09:57:09;13.00;;;10.95;;
3081;SDS011;1551;51.046;7.010;2024-03-08T09:59:59;14.23;;;12.05;;
3081;SDS011;1551;51.046;7.010;2024-03-08T10:02:49;14.63;;;11.83;;
3081;SDS011;1551;51.046;7.010;2024-03-08T10:05:39;15.10;;;12.75;;
3081;SDS011;1551;51.046;7.010;2024-03-08T10:08:28;16.85;;;12.50;;
3081;SDS011;1551;51.046;7.010;2024-03-08T10:11:20;15.38;;;12.30;;
3081;SDS011;1551;51.046;7.010;2024-03-08T10:14:09;14.60;;;11.27;;
3081;SDS011;1551;51.046;7.010;2024-03-08T10:16:59;12.95;;;11.55;;
3081;SDS011;1551;51.046;7.010;2024-03-08T10:19:50;12.60;;;11.18;;
3081;SDS011;1551;51.046;7.010;2024-03-08T10:22:41;13.63;;;11.10;;
3081;SDS011;1551;51.046;7.010;2024-03-08T10:25:32;13.80;;;11.98;;
3081;SDS011;1551;51.046;7.010;2024-03-08T10:28:22;13.57;;;12.00;;
3081;SDS011;1551;51.046;7.010;2024-03-08T10:31:14;13.20;;;11.00;;
3081;SDS011;1551;51.046;7.010;2024-03-08T10:34:03;11.77;;;10.57;;
3081;SDS011;1551;51.046;7.010;2024-03-08T10:36:54;13.60;;;11.13;;
3081;SDS011;1551;51.046;7.010;2024-03-08T10:39:57;13.60;;;12.20;;
3081;SDS011;1551;51.046;7.010;2024-03-08T10:42:59;12.93;;;10.90;;
3081;SDS011;1551;51.046;7.010;2024-03-08T10:45:48;13.05;;;11.00;;
3081;SDS011;1551;51.046;7.010;2024-03-08T10:48:43;14.17;;;11.00;;
3081;SDS011;1551;51.046;7.010;2024-03-08T10:51:33;11.75;;;10.55;;
3081;SDS011;1551;51.046;7.010;2024-03-08T10:54:22;11.38;;;10.18;;
3081;SDS011;1551;51.046;7.010;2024-03-08T10:57:15;13.10;;;10.70;;
3081;SDS011;1551;51.046;7.010;2024-03-08T11:00:07;11.63;;;10.02;;
3081;SDS011;1551;51.046;7.010;2024-03-08T11:03:00;12.20;;;9.85;;
3081;SDS011;1551;51.046;7.010;2024-03-08T11:05:49;12.40;;;10.60;;
3081;SDS011;1551;51.046;7.010;2024-03-08T11:08:38;11.73;;;10.45;;
3081;SDS011;1551;51.046;7.010;2024-03-08T11:20:23;11.25;;;9.50;;
3081;SDS011;1551;51.046;7.010;2024-03-08T11:23:12;11.23;;;10.03;;
3081;SDS011;1551;51.046;7.010;2024-03-08T11:26:01;11.25;;;10.15;;
3081;SDS011;1551;51.046;7.010;2024-03-08T11:28:50;9.88;;;8.77;;
3081;SDS011;1551;51.046;7.010;2024-03-08T11:31:44;10.17;;;9.17;;
3081;SDS011;1551;51.046;7.010;2024-03-08T11:34:35;10.45;;;9.35;;
3081;SDS011;1551;51.046;7.010;2024-03-08T11:37:24;11.27;;;9.30;;
3081;SDS011;1551;51.046;7.010;2024-03-08T11:40:16;11.13;;;9.13;;
3081;SDS011;1551;51.046;7.010;2024-03-08T11:43:08;11.50;;;9.20;;
3081;SDS011;1551;51.046;7.010;2024-03-08T11:46:16;10.60;;;9.20;;
3081;SDS011;1551;51.046;7.010;2024-03-08T11:49:06;10.60;;;9.03;;
3081;SDS011;1551;51.046;7.010;2024-03-08T11:51:55;10.50;;;9.40;;
3081;SDS011;1551;51.046;7.010;2024-03-08T11:54:49;12.10;;;9.52;;
3081;SDS011;1551;51.046;7.010;2024-03-08T11:57:42;10.20;;;9.10;;
3081;SDS011;1551;51.046;7.010;2024-03-08T12:00:32;10.00;;;9.00;;
3081;SDS011;1551;51.046;7.010;2024-03-08T12:03:24;9.85;;;8.82;;
3081;SDS011;1551;51.046;7.010;2024-03-08T12:06:13;9.80;;;8.80;;
3081;SDS011;1551;51.046;7.010;2024-03-08T12:09:08;9.63;;;8.68;;
3081;SDS011;1551;51.046;7.010;2024-03-08T12:11:59;9.90;;;8.07;;
3081;SDS011;1551;51.046;7.010;2024-03-08T12:14:48;9.35;;;8.45;;
3081;SDS011;1551;51.046;7.010;2024-03-08T12:17:38;9.65;;;8.65;;
3081;SDS011;1551;51.046;7.010;2024-03-08T12:20:31;9.30;;;8.40;;
3081;SDS011;1551;51.046;7.010;2024-03-08T12:23:20;9.25;;;8.35;;
3081;SDS011;1551;51.046;7.010;2024-03-08T12:26:23;8.73;;;7.82;;
3081;SDS011;1551;51.046;7.010;2024-03-08T12:32:16;9.90;;;8.40;;
3081;SDS011;1551;51.046;7.010;2024-03-08T12:35:07;9.93;;;8.93;;
3081;SDS011;1551;51.046;7.010;2024-03-08T12:37:59;9.07;;;8.02;;
3081;SDS011;1551;51.046;7.010;2024-03-08T12:40:49;9.50;;;8.57;;
3081;SDS011;1551;51.046;7.010;2024-03-08T12:43:38;9.73;;;8.50;;
3081;SDS011;1551;51.046;7.010;2024-03-08T12:46:27;8.73;;;7.83;;
3081;SDS011;1551;51.046;7.010;2024-03-08T12:49:18;8.90;;;8.00;;
3081;SDS011;1551;51.046;7.010;2024-03-08T12:52:10;8.52;;;7.63;;
3081;SDS011;1551;51.046;7.010;2024-03-08T12:54:59;9.50;;;8.60;;
3081;SDS011;1551;51.046;7.010;2024-03-08T12:57:55;9.30;;;7.93;;
3081;SDS011;1551;51.046;7.010;2024-03-08T13:00:44;8.93;;;7.93;;
3081;SDS011;1551;51.046;7.010;2024-03-08T13:03:33;8.60;;;7.70;;
3081;SDS011;1551;51.046;7.010;2024-03-08T13:06:24;10.10;;;8.60;;
3081;SDS011;1551;51.046;7.010;2024-03-08T13:09:13;9.65;;;8.30;;
3081;SDS011;1551;51.046;7.010;2024-03-08T13:12:02;9.55;;;7.90;;
3081;SDS011;1551;51.046;7.010;2024-03-08T13:14:51;9.75;;;7.43;;
3081;SDS011;1551;51.046;7.010;2024-03-08T13:17:41;8.20;;;7.28;;
3081;SDS011;1551;51.046;7.010;2024-03-08T13:20:31;8.68;;;7.63;;
3081;SDS011;1551;51.046;7.010;2024-03-08T13:23:20;7.90;;;7.10;;
3081;SDS011;1551;51.046;7.010;2024-03-08T13:26:09;9.32;;;7.78;;
3081;SDS011;1551;51.046;7.010;2024-03-08T13:29:05;9.32;;;8.35;;
3081;SDS011;1551;51.046;7.010;2024-03-08T13:31:55;9.10;;;7.90;;
3081;SDS011;1551;51.046;7.010;2024-03-08T13:34:46;9.55;;;8.55;;
3081;SDS011;1551;51.046;7.010;2024-03-08T13:37:36;10.02;;;8.95;;
3081;SDS011;1551;51.046;7.010;2024-03-08T13:40:24;10.70;;;9.25;;
3081;SDS011;1551;51.046;7.010;2024-03-08T13:43:14;9.73;;;8.80;;
3081;SDS011;1551;51.046;7.010;2024-03-08T13:46:03;9.90;;;8.97;;
3081;SDS011;1551;51.046;7.010;2024-03-08T13:48:53;10.40;;;9.30;;
3081;SDS011;1551;51.046;7.010;2024-03-08T13:51:51;11.00;;;8.77;;
3081;SDS011;1551;51.046;7.010;2024-03-08T13:54:40;10.63;;;9.52;;
3081;SDS011;1551;51.046;7.010;2024-03-08T13:57:29;10.20;;;8.73;;
3081;SDS011;1551;51.046;7.010;2024-03-08T14:00:18;11.05;;;9.50;;
3081;SDS011;1551;51.046;7.010;2024-03-08T14:03:11;10.67;;;9.57;;
3081;SDS011;1551;51.046;7.010;2024-03-08T14:06:01;10.80;;;9.70;;
3081;SDS011;1551;51.046;7.010;2024-03-08T14:08:52;10.98;;;9.55;;
3081;SDS011;1551;51.046;7.010;2024-03-08T14:11:42;10.85;;;9.75;;
3081;SDS011;1551;51.046;7.010;2024-03-08T14:14:33;11.20;;;9.77;;
3081;SDS011;1551;51.046;7.010;2024-03-08T14:17:24;10.40;;;9.40;;
3081;SDS011;1551;51.046;7.010;2024-03-08T14:20:15;10.70;;;9.60;;
3081;SDS011;1551;51.046;7.010;2024-03-08T14:23:06;10.60;;;9.40;;
3081;SDS011;1551;51.046;7.010;2024-03-08T14:25:57;11.70;;;10.10;;
3081;SDS011;1551;51.046;7.010;2024-03-08T14:28:47;11.65;;;10.45;;
3081;SDS011;1551;51.046;7.010;2024-03-08T14:31:38;10.47;;;9.43;;
3081;SDS011;1551;51.046;7.010;2024-03-08T14:34:27;10.40;;;9.30;;
3081;SDS011;1551;51.046;7.010;2024-03-08T14:37:18;11.25;;;9.95;;
3081;SDS011;1551;51.046;7.010;2024-03-08T14:40:12;10.90;;;9.80;;
3081;SDS011;1551;51.046;7.010;2024-03-08T14:43:04;11.98;;;10.60;;
3081;SDS011;1551;51.046;7.010;2024-03-08T14:45:53;12.20;;;10.68;;
3081;SDS011;1551;51.046;7.010;2024-03-08T14:48:45;11.80;;;10.20;;
3081;SDS011;1551;51.046;7.010;2024-03-08T14:51:35;12.40;;;10.70;;
3081;SDS011;1551;51.046;7.010;2024-03-08T14:54:24;12.20;;;10.98;;
3081;SDS011;1551;51.046;7.010;2024-03-08T14:57:14;10.88;;;9.45;;
3081;SDS011;1551;51.046;7.010;2024-03-08T15:00:03;11.52;;;9.93;;
3081;SDS011;1551;51.046;7.010;2024-03-08T15:02:54;11.35;;;9.65;;
3081;SDS011;1551;51.046;7.010;2024-03-08T15:05:44;11.85;;;10.10;;
3081;SDS011;1551;51.046;7.010;2024-03-08T15:08:38;13.05;;;10.43;;
3081;SDS011;1551;51.046;7.010;2024-03-08T15:11:28;11.82;;;10.30;;
3081;SDS011;1551;51.046;7.010;2024-03-08T15:14:18;11.10;;;9.90;;
3081;SDS011;1551;51.046;7.010;2024-03-08T15:17:08;13.05;;;10.30;;
3081;SDS011;1551;51.046;7.010;2024-03-08T15:20:01;13.73;;;10.80;;
3081;SDS011;1551;51.046;7.010;2024-03-08T15:22:50;11.90;;;10.37;;
3081;SDS011;1551;51.046;7.010;2024-03-08T15:25:43;12.23;;;10.57;;
3081;SDS011;1551;51.046;7.010;2024-03-08T15:28:35;12.70;;;10.60;;
3081;SDS011;1551;51.046;7.010;2024-03-08T15:31:36;10.88;;;9.70;;
3081;SDS011;1551;51.046;7.010;2024-03-08T15:34:46;12.90;;;10.40;;
3081;SDS011;1551;51.046;7.010;2024-03-08T15:37:35;10.52;;;9.43;;
3081;SDS011;1551;51.046;7.010;2024-03-08T15:40:25;11.90;;;9.80;;
3081;SDS011;1551;51.046;7.010;2024-03-08T15:43:14;10.52;;;9.20;;
3081;SDS011;1551;51.046;7.010;2024-03-08T15:46:08;11.50;;;9.60;;
3081;SDS011;1551;51.046;7.010;2024-03-08T15:49:00;11.60;;;9.35;;
3081;SDS011;1551;51.046;7.010;2024-03-08T15:51:49;13.40;;;9.10;;
3081;SDS011;1551;51.046;7.010;2024-03-08T15:54:38;10.50;;;9.20;;
3081;SDS011;1551;51.046;7.010;2024-03-08T15:57:28;11.82;;;10.00;;
3081;SDS011;1551;51.046;7.010;2024-03-08T16:00:18;10.63;;;9.27;;
3081;SDS011;1551;51.046;7.010;2024-03-08T16:03:25;13.07;;;9.40;;
3081;SDS011;1551;51.046;7.010;2024-03-08T16:06:16;12.63;;;10.00;;
3081;SDS011;1551;51.046;7.010;2024-03-08T16:09:09;11.10;;;9.40;;
3081;SDS011;1551;51.046;7.010;2024-03-08T16:12:04;10.77;;;9.23;;
3081;SDS011;1551;51.046;7.010;2024-03-08T16:14:53;10.18;;;9.05;;
3081;SDS011;1551;51.046;7.010;2024-03-08T16:17:43;11.60;;;9.40;;
3081;SDS011;1551;51.046;7.010;2024-03-08T16:20:32;11.07;;;8.50;;
3081;SDS011;1551;51.046;7.010;2024-03-08T16:23:21;10.00;;;9.00;;
3081;SDS011;1551;51.046;7.010;2024-03-08T16:26:15;10.60;;;8.77;;
3081;SDS011;1551;51.046;7.010;2024-03-08T16:29:04;10.18;;;8.00;;
3081;SDS011;1551;51.046;7.010;2024-03-08T16:31:55;10.00;;;8.35;;
3081;SDS011;1551;51.046;7.010;2024-03-08T16:34:44;10.70;;;8.20;;
3081;SDS011;1551;51.046;7.010;2024-03-08T16:37:33;9.23;;;7.95;;
3081;SDS011;1551;51.046;7.010;2024-03-08T16:40:22;11.25;;;8.32;;
3081;SDS011;1551;51.046;7.010;2024-03-08T16:43:13;9.93;;;8.02;;
3081;SDS011;1551;51.046;7.010;2024-03-08T16:46:03;10.65;;;7.80;;
3081;SDS011;1551;51.046;7.010;2024-03-08T16:48:52;9.38;;;7.80;;
3081;SDS011;1551;51.046;7.010;2024-03-08T16:51:41;11.43;;;8.85;;
3081;SDS011;1551;51.046;7.010;2024-03-08T16:54:30;10.30;;;8.50;;
3081;SDS011;1551;51.046;7.010;2024-03-08T16:57:19;11.63;;;8.80;;
3081;SDS011;1551;51.046;7.010;2024-03-08T17:00:08;9.20;;;7.80;;
3081;SDS011;1551;51.046;7.010;2024-03-08T17:02:59;12.05;;;8.52;;
3081;SDS011;1551;51.046;7.010;2024-03-08T17:05:50;10.30;;;8.32;;
3081;SDS011;1551;51.046;7.010;2024-03-08T17:08:44;11.25;;;8.60;;
3081;SDS011;1551;51.046;7.010;2024-03-08T17:11:34;9.73;;;8.68;;
3081;SDS011;1551;51.046;7.010;2024-03-08T17:14:24;12.18;;;9.00;;
3081;SDS011;1551;51.046;7.010;2024-03-08T17:17:13;10.07;;;8.80;;
3081;SDS011;1551;51.046;7.010;2024-03-08T17:20:03;9.65;;;8.35;;
3081;SDS011;1551;51.046;7.010;2024-03-08T17:22:56;11.75;;;9.43;;
3081;SDS011;1551;51.046;7.010;2024-03-08T17:25:45;11.00;;;9.00;;